createdAt,value
2023-08-03T00:00:51.958Z,95709.09
2023-08-03T00:03:20.439Z,95720.03
2023-08-03T00:05:49.075Z,95710.19
2023-08-03T00:08:17.685Z,95707.44
2023-08-03T00:10:46.041Z,95704.69
2023-08-03T00:13:14.519Z,95721.22
2023-08-03T00:15:46.761Z,95737.81
2023-08-03T00:18:15.124Z,95742.56
2023-08-03T00:20:43.513Z,95720.91
2023-08-03T00:23:11.855Z,95711.09
2023-08-03T00:25:40.640Z,95716.69
2023-08-03T00:28:09.279Z,95719.47
2023-08-03T00:30:37.610Z,95698.63
2023-08-03T00:33:07.409Z,95698.56
2023-08-03T00:35:35.735Z,95691.91
2023-08-03T00:38:04.366Z,95698.59
2023-08-03T00:40:33.125Z,95692.28
2023-08-03T00:43:05.379Z,95703.25
2023-08-03T00:45:34.275Z,95696.59
2023-08-03T00:48:02.850Z,95712.63
2023-08-03T00:50:33.665Z,95713.25
2023-08-03T00:53:02.150Z,95704.13
2023-08-03T00:55:31.020Z,95710.38
2023-08-03T00:57:59.896Z,95709.13
2023-08-03T01:00:28.304Z,95709.38
2023-08-03T01:02:56.788Z,95705.34
2023-08-03T01:05:27.057Z,95699.38
2023-08-03T01:07:58.004Z,95708.00
2023-08-03T01:10:27.141Z,95711.34
2023-08-03T01:12:55.959Z,95697.44
2023-08-03T01:15:24.761Z,95702.44
2023-08-03T01:17:53.529Z,95688.59
2023-08-03T01:20:26.032Z,95685.28
2023-08-03T01:22:55.724Z,95683.28
2023-08-03T01:25:27.192Z,95686.63
2023-08-03T01:27:55.798Z,95690.31
2023-08-03T01:30:24.440Z,95682.84
2023-08-03T01:32:53.434Z,95697.00
2023-08-03T01:35:22.065Z,95686.63
2023-08-03T01:37:52.998Z,95690.16
2023-08-03T01:40:23.712Z,95686.34
2023-08-03T01:42:52.327Z,95688.59
2023-08-03T01:45:21.013Z,95703.72
2023-08-03T01:47:49.709Z,95711.38
2023-08-03T01:50:18.262Z,95696.09
2023-08-03T01:52:49.264Z,95687.09
2023-08-03T01:55:17.685Z,95683.09
2023-08-03T01:57:48.058Z,95698.72
2023-08-03T02:00:16.875Z,95702.91
2023-08-03T02:02:49.091Z,95711.13
2023-08-03T02:05:21.310Z,95716.56
2023-08-03T02:07:54.911Z,95718.81
2023-08-03T02:10:25.843Z,95712.22
2023-08-03T02:12:55.646Z,95702.44
2023-08-03T02:15:26.645Z,95694.13
2023-08-03T02:17:55.665Z,95703.88
2023-08-03T02:20:24.029Z,95707.69
2023-08-03T02:22:52.369Z,95698.41
2023-08-03T02:25:24.805Z,95696.84
2023-08-03T02:27:55.233Z,95682.84
2023-08-03T02:30:23.962Z,95691.22
2023-08-03T02:32:52.923Z,95676.28
2023-08-03T02:35:24.473Z,95673.53
2023-08-03T02:37:54.337Z,95682.69
2023-08-03T02:40:23.358Z,95680.19
2023-08-03T02:42:52.545Z,95687.91
2023-08-03T02:45:22.741Z,95689.88
2023-08-03T02:47:53.327Z,95689.31
2023-08-03T02:50:24.432Z,95693.72
2023-08-03T02:52:57.619Z,95704.03
2023-08-03T02:55:26.732Z,95700.06
2023-08-03T02:57:58.033Z,95703.63
2023-08-03T03:00:28.482Z,95704.16
2023-08-03T03:02:57.969Z,95707.56
2023-08-03T03:05:35.578Z,95713.56
2023-08-03T03:08:04.439Z,95714.66
2023-08-03T03:10:34.285Z,95731.22
2023-08-03T03:13:02.785Z,95720.84
2023-08-03T03:15:32.982Z,95728.19
2023-08-03T03:18:02.760Z,95728.84
2023-08-03T03:20:31.946Z,95735.13
2023-08-03T03:23:01.561Z,95730.84
2023-08-03T03:25:30.125Z,95735.00
2023-08-03T03:28:05.186Z,95738.06
2023-08-03T03:30:39.017Z,95735.91
2023-08-03T03:33:07.496Z,95745.97
2023-08-03T03:35:36.489Z,95746.59
2023-08-03T03:38:05.390Z,95735.91
2023-08-03T03:40:34.551Z,95733.13
2023-08-03T03:43:04.261Z,95725.06
2023-08-03T03:45:33.787Z,95733.34
2023-08-03T03:48:03.753Z,95736.00
2023-08-03T03:50:34.682Z,95749.19
2023-08-03T03:53:03.111Z,95752.25
2023-08-03T03:55:33.159Z,95767.81
2023-08-03T03:58:01.865Z,95772.13
2023-08-03T04:00:30.932Z,95780.50
2023-08-03T04:02:59.723Z,95776.81
2023-08-03T04:05:29.681Z,95779.91
2023-08-03T04:07:57.999Z,95784.53
2023-08-03T04:10:28.116Z,95776.31
2023-08-03T04:12:56.536Z,95777.25
2023-08-03T04:15:25.849Z,95781.38
2023-08-03T04:17:54.316Z,95773.16
2023-08-03T04:20:32.085Z,95776.31
2023-08-03T04:23:00.728Z,95777.31
2023-08-03T04:25:29.821Z,95775.56
2023-08-03T04:28:02.877Z,95778.91
2023-08-03T04:30:37.613Z,95784.56
2023-08-03T04:33:06.062Z,95782.25
2023-08-03T04:35:39.444Z,95782.50
2023-08-03T04:38:14.071Z,95786.88
2023-08-03T04:40:49.084Z,95786.88
2023-08-03T04:43:17.845Z,95792.16
2023-08-03T04:45:46.236Z,95779.94
2023-08-03T04:48:14.862Z,95802.50
2023-08-03T04:50:44.904Z,95799.13
2023-08-03T04:53:15.562Z,95798.16
2023-08-03T04:55:46.224Z,95813.19
2023-08-03T04:58:15.292Z,95817.72
2023-08-03T05:00:46.710Z,95819.81
2023-08-03T05:03:15.197Z,95826.72
2023-08-03T05:05:46.610Z,95815.09
2023-08-03T05:08:18.332Z,95813.28
2023-08-03T05:10:46.906Z,95818.28
2023-08-03T05:13:18.260Z,95817.69
2023-08-03T05:15:46.848Z,95833.13
2023-08-03T05:18:15.657Z,95819.03
2023-08-03T05:20:45.527Z,95825.03
2023-08-03T05:23:14.651Z,95824.31
2023-08-03T05:25:42.986Z,95822.09
2023-08-03T05:28:11.622Z,95831.13
2023-08-03T05:30:40.077Z,95835.63
2023-08-03T05:33:08.620Z,95825.91
2023-08-03T05:35:37.105Z,95833.88
2023-08-03T05:38:07.252Z,95832.75
2023-08-03T05:40:36.040Z,95836.34
2023-08-03T05:43:11.321Z,95837.59
2023-08-03T05:45:44.252Z,95840.38
2023-08-03T05:48:17.427Z,95834.94
2023-08-03T05:50:47.529Z,95842.81
2023-08-03T05:53:18.905Z,95843.28
2023-08-03T05:56:05.476Z,95853.97
2023-08-03T05:58:38.681Z,95848.91
2023-08-03T06:01:08.233Z,95846.66
2023-08-03T06:03:45.989Z,95843.22
2023-08-03T06:06:19.544Z,95839.47
2023-08-03T06:08:52.603Z,95844.38
2023-08-03T06:13:54.326Z,95845.38
2023-08-03T06:16:24.942Z,95854.06
2023-08-03T06:18:55.574Z,95861.13
2023-08-03T06:21:25.812Z,95842.44
2023-08-03T06:23:58.961Z,95843.97
2023-08-03T06:26:29.763Z,95859.59
2023-08-03T06:29:00.042Z,95854.03
2023-08-03T06:31:36.313Z,95860.31
2023-08-03T06:34:05.434Z,95853.84
2023-08-03T06:36:36.409Z,95858.53
2023-08-03T06:39:06.467Z,95860.78
2023-08-03T06:41:36.729Z,95864.19
2023-08-03T06:44:05.754Z,95857.44
2023-08-03T06:46:34.283Z,95856.88
2023-08-03T06:49:05.056Z,95868.72
2023-08-03T06:51:33.918Z,95873.59
2023-08-03T06:54:04.085Z,95870.44
2023-08-03T06:56:33.842Z,95870.38
2023-08-03T06:59:02.615Z,95870.63
2023-08-03T07:01:31.194Z,95865.00
2023-08-03T07:03:59.763Z,95856.91
2023-08-03T07:06:28.680Z,95867.34
2023-08-03T07:08:57.205Z,95867.78
2023-08-03T07:11:25.608Z,95873.88
2023-08-03T07:13:55.650Z,95877.03
2023-08-03T07:16:24.606Z,95885.13
2023-08-03T07:18:53.442Z,95881.81
2023-08-03T07:21:22.133Z,95870.03
2023-08-03T07:23:50.837Z,95868.00
2023-08-03T07:26:19.524Z,95880.72
2023-08-03T07:28:50.380Z,95874.06
2023-08-03T07:31:20.290Z,95893.53
2023-08-03T07:33:49.089Z,95882.16
2023-08-03T07:36:19.508Z,95878.56
2023-08-03T07:38:48.649Z,95885.66
2023-08-03T07:41:17.076Z,95879.88
2023-08-03T07:43:46.060Z,95884.34
2023-08-03T07:46:14.735Z,95900.09
2023-08-03T07:48:44.614Z,95890.91
2023-08-03T07:51:14.491Z,95893.19
2023-08-03T07:53:44.399Z,95904.91
2023-08-03T07:56:17.123Z,95901.69
2023-08-03T07:58:45.832Z,95910.16
2023-08-03T08:01:14.633Z,95911.25
2023-08-03T08:03:45.029Z,95908.97
2023-08-03T08:06:17.507Z,95910.41
2023-08-03T08:08:46.773Z,95916.19
2023-08-03T08:11:18.160Z,95917.13
2023-08-03T08:13:47.145Z,95928.25
2023-08-03T08:16:17.915Z,95932.75
2023-08-03T08:18:47.752Z,95921.59
2023-08-03T08:21:16.531Z,95935.31
2023-08-03T08:23:45.416Z,95925.19
2023-08-03T08:26:15.870Z,95935.00
2023-08-03T08:29:01.282Z,95911.66
2023-08-03T08:34:04.357Z,95926.47
2023-08-03T08:36:33.299Z,95929.09
2023-08-03T08:39:02.024Z,95931.59
2023-08-03T08:41:31.259Z,95922.19
2023-08-03T08:43:59.672Z,95930.91
2023-08-03T08:46:28.270Z,95930.75
2023-08-03T08:48:56.953Z,95941.72
2023-08-03T09:01:51.533Z,95928.38
2023-08-03T09:04:32.110Z,95929.53
2023-08-03T09:07:03.741Z,95927.97
2023-08-03T09:09:37.921Z,95949.00
2023-08-03T09:12:10.679Z,95931.63
2023-08-03T09:14:51.750Z,95928.97
2023-08-03T09:17:21.807Z,95934.59
2023-08-03T09:25:08.417Z,95933.38
2023-08-03T09:30:14.947Z,95938.72
2023-08-03T09:35:19.899Z,95956.72
2023-08-03T09:37:50.729Z,95950.88
2023-08-03T09:40:21.234Z,95971.53
2023-08-03T09:42:50.570Z,95961.06
2023-08-03T09:47:52.971Z,95965.00
2023-08-03T09:50:21.989Z,95975.44
2023-08-03T09:52:55.447Z,95979.47
2023-08-03T09:55:30.431Z,95969.03
2023-08-03T09:58:10.038Z,95968.06
2023-08-03T10:00:40.204Z,95977.34
2023-08-03T10:03:14.080Z,95967.50
2023-08-03T10:05:53.682Z,95959.34
2023-08-03T10:08:29.814Z,95976.50
2023-08-03T10:11:01.871Z,95974.88
2023-08-03T10:13:35.538Z,95966.38
2023-08-03T10:16:04.650Z,95970.38
2023-08-03T10:21:09.280Z,95969.38
2023-08-03T10:23:40.417Z,95975.22
2023-08-03T10:26:09.508Z,95981.22
2023-08-03T10:28:48.894Z,95973.03
2023-08-03T10:31:22.127Z,95971.88
2023-08-03T10:34:10.114Z,95967.50
2023-08-03T10:36:50.682Z,95965.22
2023-08-03T10:39:49.898Z,95974.66
2023-08-03T10:42:27.907Z,95957.22
2023-08-03T10:45:19.259Z,95976.22
2023-08-03T10:47:47.726Z,95974.31
2023-08-03T10:50:16.568Z,95962.63
2023-08-03T10:52:44.971Z,95963.44
2023-08-03T10:55:27.920Z,95971.31
2023-08-03T10:57:57.149Z,95959.38
2023-08-03T11:00:25.739Z,95979.06
2023-08-03T11:02:54.504Z,95977.13
2023-08-03T11:05:23.108Z,95985.09
2023-08-03T11:07:51.617Z,95980.44
2023-08-03T11:10:20.375Z,95984.63
2023-08-03T11:12:53.744Z,95994.13
2023-08-03T11:15:22.420Z,95965.22
2023-08-03T11:17:52.085Z,95979.38
2023-08-03T11:20:21.744Z,95982.59
2023-08-03T11:22:50.508Z,95981.00
2023-08-03T11:25:21.575Z,95978.63
2023-08-03T11:27:53.541Z,95983.75
2023-08-03T11:30:22.859Z,95980.19
2023-08-03T11:32:59.830Z,95980.59
2023-08-03T11:35:28.579Z,95999.84
2023-08-03T11:37:57.049Z,95974.47
2023-08-03T11:40:26.618Z,95979.25
2023-08-03T11:42:56.997Z,95981.06
2023-08-03T11:45:25.716Z,95984.78
2023-08-03T11:47:55.336Z,95984.09
2023-08-03T11:50:28.327Z,95991.66
2023-08-03T11:53:09.562Z,95985.88
2023-08-03T11:55:47.910Z,95979.78
2023-08-03T11:58:16.797Z,95991.72
2023-08-03T12:00:47.659Z,95992.16
2023-08-03T12:03:31.995Z,96000.13
2023-08-03T12:06:09.040Z,95989.59
2023-08-03T12:08:47.059Z,95976.38
2023-08-03T12:11:24.725Z,95988.03
2023-08-03T12:13:55.662Z,95982.41
2023-08-03T12:16:24.114Z,95978.00
2023-08-03T12:18:52.866Z,95998.94
2023-08-03T12:21:21.638Z,95996.16
2023-08-03T12:23:50.249Z,95991.38
2023-08-03T12:26:18.642Z,96003.34
2023-08-03T12:28:46.958Z,96004.72
2023-08-03T12:31:16.977Z,96006.84
2023-08-03T12:33:45.579Z,95994.94
2023-08-03T12:36:14.737Z,96009.09
2023-08-03T12:38:43.167Z,95987.56
2023-08-03T12:41:11.995Z,96012.56
2023-08-03T12:43:40.366Z,96010.63
2023-08-03T12:46:09.335Z,96017.63
2023-08-03T12:48:39.243Z,95987.22
2023-08-03T12:51:08.209Z,96001.00
2023-08-03T12:53:36.624Z,96010.84
2023-08-03T12:56:05.363Z,96006.88
2023-08-03T12:58:33.722Z,96006.59
2023-08-03T13:01:02.472Z,96021.22
2023-08-03T13:03:30.896Z,96019.28
2023-08-03T13:06:00.799Z,96017.91
2023-08-03T13:08:29.204Z,96026.91
2023-08-03T13:10:57.765Z,96025.56
2023-08-03T13:13:26.485Z,96020.56
2023-08-03T13:15:55.026Z,96035.31
2023-08-03T13:18:24.520Z,96029.38
2023-08-03T13:23:31.487Z,96039.66
2023-08-03T13:26:00.349Z,96040.66
2023-08-03T13:28:28.770Z,96052.78
2023-08-03T13:30:59.244Z,96057.00
2023-08-03T13:33:28.093Z,96050.69
2023-08-03T13:35:56.762Z,96054.22
2023-08-03T13:38:26.503Z,96051.94
2023-08-03T13:40:59.109Z,96057.81
2023-08-03T13:43:27.544Z,96046.44
2023-08-03T13:45:56.074Z,96057.16
2023-08-03T13:48:24.617Z,96048.22
2023-08-03T13:50:53.571Z,96060.44
2023-08-03T13:53:21.935Z,96056.34
2023-08-03T13:55:50.314Z,96051.69
2023-08-03T14:00:51.644Z,96047.84
2023-08-03T14:03:34.505Z,96037.13
2023-08-03T14:09:12.120Z,96055.25
2023-08-03T14:11:23.824Z,96065.06
2023-08-03T14:18:56.977Z,96066.09
2023-08-03T14:21:51.360Z,96058.41
2023-08-03T14:26:53.706Z,96072.38
2023-08-03T14:29:23.576Z,96080.50
2023-08-03T14:31:52.107Z,96067.91
2023-08-03T14:34:21.067Z,96070.69
2023-08-03T14:36:49.635Z,96072.56
2023-08-03T14:39:18.384Z,96073.34
2023-08-03T14:41:49.709Z,96064.91
2023-08-03T14:44:25.734Z,96065.28
2023-08-03T14:47:01.719Z,96057.56
2023-08-03T14:49:30.491Z,96064.91
2023-08-03T14:54:30.595Z,96059.13
2023-08-03T14:56:59.098Z,96068.16
2023-08-03T14:59:27.625Z,96064.16
2023-08-03T15:02:02.218Z,96061.72
2023-08-03T15:04:31.316Z,96058.16
2023-08-03T15:07:06.603Z,96060.91
2023-08-03T15:09:35.335Z,96060.22
2023-08-03T15:12:04.660Z,96053.56
2023-08-03T15:14:34.948Z,96059.78
2023-08-03T15:17:24.201Z,96061.13
2023-08-03T15:22:27.091Z,96061.13
2023-08-03T15:24:56.772Z,96056.16
2023-08-03T15:27:26.515Z,96063.34
2023-08-03T15:29:56.912Z,96064.13
2023-08-03T15:35:02.870Z,96060.56
2023-08-03T15:37:35.019Z,96060.53
2023-08-03T15:40:05.160Z,96075.22
2023-08-03T15:42:36.671Z,96058.50
2023-08-03T15:45:12.407Z,96070.06
2023-08-03T15:48:18.994Z,96067.94
2023-08-03T15:50:36.713Z,96071.31
2023-08-03T15:53:27.384Z,96053.03
2023-08-03T15:58:28.649Z,96079.00
2023-08-03T16:00:58.703Z,96073.88
2023-08-03T16:03:28.778Z,96058.06
2023-08-03T16:05:59.349Z,96077.16
2023-08-03T16:08:27.789Z,96066.78
2023-08-03T16:11:01.597Z,96071.47
2023-08-03T16:13:30.840Z,96063.00
2023-08-03T16:16:03.144Z,96077.22
2023-08-03T16:18:34.633Z,96073.06
2023-08-03T16:21:07.121Z,96071.84
2023-08-03T16:23:36.241Z,96078.09
2023-08-03T16:26:11.028Z,96069.31
2023-08-03T16:28:39.568Z,96074.13
2023-08-03T16:31:16.308Z,96081.53
2023-08-03T16:33:47.027Z,96073.66
2023-08-03T16:36:16.922Z,96079.47
2023-08-03T16:38:46.436Z,96067.50
2023-08-03T16:41:15.557Z,96075.91
2023-08-03T16:43:44.320Z,96076.91
2023-08-03T16:46:13.235Z,96074.41
2023-08-03T16:48:41.998Z,96066.28
2023-08-03T16:51:11.923Z,96069.88
2023-08-03T16:53:40.321Z,96065.59
2023-08-03T16:56:08.620Z,96062.41
2023-08-03T16:58:37.061Z,96068.38
2023-08-03T17:01:05.912Z,96071.19
2023-08-03T17:03:34.768Z,96074.19
2023-08-03T17:06:03.460Z,96070.97
2023-08-03T17:08:33.216Z,96082.25
2023-08-03T17:11:01.656Z,96084.25
2023-08-03T17:13:30.322Z,96069.78
2023-08-03T17:16:05.039Z,96083.22
2023-08-03T17:18:34.107Z,96086.81
2023-08-03T17:21:03.253Z,96082.44
2023-08-03T17:23:33.642Z,96092.13
2023-08-03T17:26:03.033Z,96083.81
2023-08-03T17:28:31.475Z,96086.78
2023-08-03T17:31:04.327Z,96083.81
2023-08-03T17:33:33.027Z,96095.50
2023-08-03T17:36:18.163Z,96095.88
2023-08-03T17:38:50.494Z,96089.72
2023-08-03T17:41:18.853Z,96087.63
2023-08-03T17:43:47.622Z,96095.38
2023-08-03T17:46:16.503Z,96105.59
2023-08-03T17:48:45.438Z,96115.34
2023-08-03T17:51:13.954Z,96115.34
2023-08-03T17:53:45.884Z,96132.09
2023-08-03T17:56:19.062Z,96131.81
2023-08-03T17:58:50.504Z,96138.47
2023-08-03T18:01:22.026Z,96135.19
2023-08-03T18:03:51.387Z,96136.34
2023-08-03T18:06:27.294Z,96149.97
2023-08-03T18:08:57.565Z,96156.56
2023-08-03T18:11:27.691Z,96156.72
2023-08-03T18:13:56.403Z,96159.91
2023-08-03T18:16:24.885Z,96150.94
2023-08-03T18:18:53.454Z,96154.66
2023-08-03T18:21:27.213Z,96147.63
2023-08-03T18:23:57.446Z,96152.09
2023-08-03T18:26:27.926Z,96163.53
2023-08-03T18:28:57.689Z,96157.50
2023-08-03T18:31:26.383Z,96167.31
2023-08-03T18:33:55.492Z,96160.22
2023-08-03T18:36:23.996Z,96167.28
2023-08-03T18:38:54.644Z,96172.69
2023-08-03T18:41:27.882Z,96179.56
2023-08-03T18:43:57.462Z,96184.97
2023-08-03T18:46:27.254Z,96180.75
2023-08-03T18:48:57.033Z,96174.91
2023-08-03T18:51:25.980Z,96188.69
2023-08-03T18:53:54.600Z,96183.53
2023-08-03T18:56:27.504Z,96184.66
2023-08-03T18:58:58.436Z,96185.38
2023-08-03T19:01:30.019Z,96193.84
2023-08-03T19:04:01.766Z,96203.00
2023-08-03T19:06:30.347Z,96202.19
2023-08-03T19:08:58.740Z,96207.81
2023-08-03T19:11:28.579Z,96206.28
2023-08-03T19:13:59.052Z,96209.56
2023-08-03T19:16:29.348Z,96213.56
2023-08-03T19:18:58.304Z,96208.88
2023-08-03T19:21:26.846Z,96208.56
2023-08-03T19:23:55.573Z,96214.06
2023-08-03T19:26:24.509Z,96220.69
2023-08-03T19:28:54.626Z,96217.59
2023-08-03T19:31:25.787Z,96231.63
2023-08-03T19:33:54.648Z,96229.66
2023-08-03T19:36:23.163Z,96221.44
2023-08-03T19:38:51.593Z,96227.75
2023-08-03T19:41:20.829Z,96233.69
2023-08-03T19:43:49.239Z,96237.22
2023-08-03T19:46:19.002Z,96243.50
2023-08-03T19:48:47.637Z,96243.38
2023-08-03T19:53:47.942Z,96245.59
2023-08-03T20:06:26.256Z,96244.09
2023-08-03T20:08:56.246Z,96247.41
2023-08-03T20:11:25.004Z,96253.31
2023-08-03T20:13:56.757Z,96256.09
2023-08-03T20:21:30.504Z,96252.44
2023-08-03T20:23:59.907Z,96261.47
2023-08-03T20:26:35.439Z,96261.06
2023-08-03T20:29:06.013Z,96268.91
2023-08-03T20:31:36.294Z,96263.38
2023-08-03T20:36:36.838Z,96277.84
2023-08-03T20:39:17.338Z,96280.06
2023-08-03T20:41:54.596Z,96276.31
2023-08-03T20:45:00.056Z,96273.59
2023-08-03T20:49:46.321Z,96271.69
2023-08-03T20:52:17.512Z,96275.31
2023-08-03T20:54:46.547Z,96284.56
2023-08-03T20:57:15.261Z,96288.88
2023-08-03T20:59:43.966Z,96285.84
2023-08-03T21:02:12.456Z,96298.22
2023-08-03T21:04:42.411Z,96298.34
2023-08-03T21:07:10.892Z,96312.75
2023-08-03T21:09:40.306Z,96319.53
2023-08-03T21:12:09.978Z,96316.50
2023-08-03T21:14:38.461Z,96308.47
2023-08-03T21:17:07.181Z,96319.75
2023-08-03T21:19:37.618Z,96325.19
2023-08-03T21:22:07.777Z,96325.75
2023-08-03T21:24:36.488Z,96327.25
2023-08-03T21:27:05.588Z,96331.06
2023-08-03T21:29:34.051Z,96336.41
2023-08-03T21:32:02.746Z,96334.53
2023-08-03T21:34:31.306Z,96332.94
2023-08-03T21:36:59.725Z,96330.63
2023-08-03T21:39:29.840Z,96324.78
2023-08-03T21:41:58.530Z,96314.41
2023-08-03T21:44:27.317Z,96318.00
2023-08-03T21:46:56.092Z,96321.91
2023-08-03T21:49:24.835Z,96332.94
2023-08-03T21:51:53.371Z,96355.31
2023-08-03T21:54:22.288Z,96368.28
2023-08-03T21:56:52.067Z,96369.66
2023-08-03T21:59:23.062Z,96367.47
2023-08-03T22:01:52.094Z,96376.31
2023-08-03T22:04:20.704Z,96368.28
2023-08-03T22:06:49.285Z,96369.38
2023-08-03T22:09:18.397Z,96377.38
2023-08-03T22:11:47.443Z,96386.59
2023-08-03T22:14:17.819Z,96375.25
2023-08-03T22:16:46.293Z,96378.50
2023-08-03T22:19:14.849Z,96375.06
2023-08-03T22:21:44.403Z,96385.84
2023-08-03T22:24:13.044Z,96382.44
2023-08-03T22:26:41.826Z,96385.78
2023-08-03T22:29:10.756Z,96386.63
2023-08-03T22:31:40.681Z,96391.00
2023-08-03T22:34:09.133Z,96382.06
2023-08-03T22:36:38.041Z,96378.13
2023-08-03T22:39:07.012Z,96385.19
2023-08-03T22:41:35.573Z,96389.09
2023-08-03T22:44:04.735Z,96387.94
2023-08-03T22:46:33.539Z,96382.00
2023-08-03T22:49:03.297Z,96377.13
2023-08-03T22:51:32.000Z,96387.41
2023-08-03T22:54:00.376Z,96386.25
2023-08-03T22:56:29.165Z,96378.97
2023-08-03T22:58:57.900Z,96381.03
2023-08-03T23:01:27.025Z,96387.38
2023-08-03T23:03:56.045Z,96381.50
2023-08-03T23:06:27.009Z,96388.84
2023-08-03T23:08:57.048Z,96405.47
2023-08-03T23:11:26.643Z,96407.16
2023-08-03T23:13:59.144Z,96413.31
2023-08-03T23:16:27.959Z,96414.72
2023-08-03T23:18:56.477Z,96408.56
2023-08-03T23:21:26.186Z,96414.56
2023-08-03T23:23:54.683Z,96399.50
2023-08-03T23:26:24.972Z,96416.13
2023-08-03T23:28:53.876Z,96425.81
2023-08-03T23:31:22.320Z,96428.31
2023-08-03T23:33:50.877Z,96423.13
2023-08-03T23:36:19.674Z,96424.50
2023-08-03T23:38:49.518Z,96429.22
2023-08-03T23:41:19.974Z,96418.63
2023-08-03T23:43:50.134Z,96416.38
2023-08-03T23:46:19.068Z,96427.13
2023-08-03T23:48:47.813Z,96429.91
2023-08-03T23:51:16.267Z,96433.00
2023-08-03T23:53:45.016Z,96430.91
2023-08-03T23:56:14.979Z,96434.00
2023-08-03T23:58:43.310Z,96438.69
